Time;durP1;ratioP1;P1;durP2;ratioP2;P2;SDS_P1;SDS_P2;PMS_P1;PMS_P2;Temp;Humidity;BMP_temperature;BMP_pressure;BME280_temperature;BME280_humidity;BME280_pressure;Samples;Min_cycle;Max_cycle;Signal;HPM_P1;HPM_P2
2023/06/30 00:01:59;;;;;;;14.82;4.50;;;;;;;;;;5075637;28;20044;-74
2023/06/30 00:04:26;;;;;;;;;;;;;;;;;;5072030;28;20047;-74
2023/06/30 00:06:56;;;;;;;12.48;3.95;;;;;;;;;;5072128;28;19924;-74
2023/06/30 00:09:23;;;;;;;11.40;4.32;;;;;;;;;;5055274;28;20064;-74
2023/06/30 00:11:53;;;;;;;15.80;3.95;;;;;;;;;;5072064;28;20042;-76
2023/06/30 00:14:19;;;;;;;8.05;4.10;;;;;;;;;;5072295;28;20139;-74
2023/06/30 00:16:46;;;;;;;9.40;4.47;;;;;;;;;;5039423;28;20097;-74
2023/06/30 00:19:12;;;;;;;16.02;4.47;;;;;;;;;;5054240;28;20094;-74
2023/06/30 00:21:42;;;;;;;13.35;4.20;;;;;;;;;;5072491;28;20044;-75
2023/06/30 00:24:14;;;;;;;13.27;4.20;;;;;;;;;;5053540;28;20056;-74
2023/06/30 00:26:40;;;;;;;13.57;3.90;;;;;;;;;;5055746;28;20048;-74
2023/06/30 00:29:07;;;;;;;15.18;4.30;;;;;;;;;;5053807;28;20104;-75
2023/06/30 00:31:33;;;;;;;15.23;4.38;;;;;;;;;;5052363;28;20444;-74
2023/06/30 00:33:59;;;;;;;10.38;3.58;;;;;;;;;;5050427;28;20504;-74
2023/06/30 00:36:25;;;;;;;;;;;;;;;;;;5042588;28;20059;-74
2023/06/30 00:38:54;;;;;;;13.50;4.03;;;;;;;;;;5070967;28;19974;-75
2023/06/30 00:41:20;;;;;;;15.48;3.78;;;;;;;;;;5055187;28;20140;-74
2023/06/30 00:43:46;;;;;;;10.10;3.47;;;;;;;;;;5054963;28;20091;-74
2023/06/30 00:46:16;;;;;;;11.57;3.67;;;;;;;;;;5070877;28;20052;-74
2023/06/30 00:48:42;;;;;;;22.33;4.80;;;;;;;;;;5069015;28;20041;-74
2023/06/30 00:51:08;;;;;;;;;;;;;;;;;;5055054;28;20086;-74
2023/06/30 00:53:34;;;;;;;14.57;4.15;;;;;;;;;;5071355;28;19920;-75
2023/06/30 00:56:00;;;;;;;;;;;;;;;;;;5071705;28;20370;-74
2023/06/30 00:58:26;;;;;;;9.65;3.20;;;;;;;;;;5054422;28;19969;-74
2023/06/30 01:00:54;;;;;;;;;;;;;;;;;;5071145;28;20064;-76
2023/06/30 01:03:20;;;;;;;13.23;3.70;;;;;;;;;;5053486;28;19986;-74
2023/06/30 01:05:47;;;;;;;;;;;;;;;;;;5055422;28;20135;-74
2023/06/30 01:08:20;;;;;;;11.23;3.63;;;;;;;;;;5053186;28;19928;-74
2023/06/30 01:10:47;;;;;;;14.25;3.88;;;;;;;;;;5064299;28;20044;-74
2023/06/30 01:13:13;;;;;;;14.50;3.42;;;;;;;;;;5033809;28;20057;-74
2023/06/30 01:15:40;;;;;;;12.63;3.63;;;;;;;;;;5050905;28;20490;-74
2023/06/30 01:18:09;;;;;;;14.15;3.55;;;;;;;;;;5058965;28;20048;-74
2023/06/30 01:20:39;;;;;;;11.52;3.35;;;;;;;;;;5054844;28;20044;-74
2023/06/30 01:23:28;;;;;;;16.40;3.70;;;;;;;;;;5053525;28;20048;-74
2023/06/30 01:25:54;;;;;;;10.45;3.53;;;;;;;;;;5070821;28;20477;-74
2023/06/30 01:28:20;;;;;;;12.15;3.85;;;;;;;;;;5067157;28;20116;-74
2023/06/30 01:30:46;;;;;;;;;;;;;;;;;;5038213;28;20048;-74
2023/06/30 01:33:13;;;;;;;13.80;4.00;;;;;;;;;;5060269;28;20461;-77
2023/06/30 01:35:40;;;;;;;9.50;3.70;;;;;;;;;;5051467;28;20569;-77
2023/06/30 01:38:06;;;;;;;17.27;4.25;;;;;;;;;;5069884;28;20084;-76
2023/06/30 01:40:32;;;;;;;;;;;;;;;;;;5054441;28;20088;-77
2023/06/30 01:42:58;;;;;;;15.20;4.10;;;;;;;;;;5070208;28;20029;-76
2023/06/30 01:45:24;;;;;;;;;;;;;;;;;;5054611;28;20049;-74
2023/06/30 01:47:50;;;;;;;11.55;3.70;;;;;;;;;;5068313;28;20596;-74
2023/06/30 01:50:17;;;;;;;10.25;3.78;;;;;;;;;;5070194;28;20045;-74
2023/06/30 01:52:43;;;;;;;13.63;3.85;;;;;;;;;;5036625;28;20052;-74
2023/06/30 01:55:09;;;;;;;17.02;4.38;;;;;;;;;;5049641;28;20049;-74
2023/06/30 01:57:35;;;;;;;;;;;;;;;;;;5053980;28;20048;-75
2023/06/30 02:00:01;;;;;;;9.18;3.67;;;;;;;;;;5066218;28;19920;-76
2023/06/30 02:02:27;;;;;;;16.33;4.15;;;;;;;;;;5050355;28;20072;-74
2023/06/30 02:04:53;;;;;;;11.82;4.35;;;;;;;;;;5033135;28;20057;-74
2023/06/30 02:07:20;;;;;;;;;;;;;;;;;;5033765;28;20052;-75
2023/06/30 02:09:46;;;;;;;10.02;3.78;;;;;;;;;;5048747;28;20308;-74
2023/06/30 02:12:12;;;;;;;18.42;4.13;;;;;;;;;;5049795;28;20071;-75
2023/06/30 02:14:38;;;;;;;;;;;;;;;;;;5050575;28;20049;-74
2023/06/30 02:17:04;;;;;;;13.40;4.00;;;;;;;;;;5062917;28;19931;-75
2023/06/30 02:19:30;;;;;;;14.43;4.15;;;;;;;;;;5061770;28;20488;-75
2023/06/30 02:21:56;;;;;;;15.30;4.85;;;;;;;;;;5068427;28;20511;-74
2023/06/30 02:24:22;;;;;;;14.10;4.55;;;;;;;;;;5088884;28;20162;-74
2023/06/30 02:26:49;;;;;;;12.93;4.72;;;;;;;;;;5072919;28;20137;-74
2023/06/30 02:29:15;;;;;;;9.05;3.75;;;;;;;;;;5032767;28;20142;-74
2023/06/30 02:31:41;;;;;;;11.60;4.25;;;;;;;;;;5036672;28;20052;-75
2023/06/30 02:34:07;;;;;;;;;;;;;;;;;;5051788;28;20500;-74
2023/06/30 02:36:33;;;;;;;14.30;3.88;;;;;;;;;;5055679;28;20018;-74
2023/06/30 02:38:59;;;;;;;14.60;4.72;;;;;;;;;;5049338;28;20405;-74
2023/06/30 02:41:25;;;;;;;15.20;4.20;;;;;;;;;;5049287;28;20879;-74
2023/06/30 02:43:51;;;;;;;18.25;4.63;;;;;;;;;;5032853;28;20057;-74
2023/06/30 02:46:17;;;;;;;12.48;4.05;;;;;;;;;;5050183;28;20383;-73
2023/06/30 02:48:43;;;;;;;12.52;3.90;;;;;;;;;;5068810;28;20044;-74
2023/06/30 02:51:09;;;;;;;9.20;3.83;;;;;;;;;;5069479;28;20110;-75
2023/06/30 02:53:35;;;;;;;;;;;;;;;;;;5050501;28;20052;-74
2023/06/30 02:56:01;;;;;;;7.85;3.60;;;;;;;;;;5049903;28;19920;-74
2023/06/30 02:58:27;;;;;;;11.60;3.65;;;;;;;;;;5052191;28;20110;-73
2023/06/30 03:00:55;;;;;;;12.30;4.25;;;;;;;;;;5036409;28;20044;-73
2023/06/30 03:03:21;;;;;;;15.93;4.10;;;;;;;;;;5051986;28;20052;-74
2023/06/30 03:05:47;;;;;;;13.85;4.03;;;;;;;;;;5046214;28;20061;-74
2023/06/30 03:08:13;;;;;;;13.75;4.00;;;;;;;;;;5031879;28;20401;-74
2023/06/30 03:10:39;;;;;;;11.88;4.40;;;;;;;;;;5032613;28;20453;-73
2023/06/30 03:13:05;;;;;;;;;;;;;;;;;;5033207;28;20055;-74
2023/06/30 03:15:31;;;;;;;9.25;3.80;;;;;;;;;;5059331;28;20007;-74
2023/06/30 03:17:57;;;;;;;;;;;;;;;;;;5068934;28;20114;-74
2023/06/30 03:20:24;;;;;;;15.57;4.30;;;;;;;;;;5065322;28;20381;-74
2023/06/30 03:22:50;;;;;;;11.88;4.22;;;;;;;;;;5064129;28;20055;-74
2023/06/30 03:25:16;;;;;;;17.52;4.65;;;;;;;;;;5069008;28;20139;-74
2023/06/30 03:27:42;;;;;;;16.38;4.32;;;;;;;;;;5069086;28;20045;-74
2023/06/30 03:30:08;;;;;;;16.80;4.35;;;;;;;;;;5069535;28;20055;-74
2023/06/30 03:32:34;;;;;;;11.52;4.10;;;;;;;;;;5068031;28;20095;-74
2023/06/30 03:35:03;;;;;;;12.65;4.60;;;;;;;;;;5069131;28;20108;-74
2023/06/30 03:37:32;;;;;;;13.13;4.40;;;;;;;;;;5068654;28;20048;-74
2023/06/30 03:39:59;;;;;;;16.02;4.05;;;;;;;;;;5050769;28;20160;-74
2023/06/30 03:42:25;;;;;;;9.60;3.88;;;;;;;;;;5051720;28;20044;-74
2023/06/30 03:44:51;;;;;;;11.65;3.63;;;;;;;;;;5049159;28;20135;-74
2023/06/30 03:47:17;;;;;;;10.32;4.18;;;;;;;;;;5049353;28;20374;-74
2023/06/30 03:49:43;;;;;;;;;;;;;;;;;;5052213;28;20049;-74
2023/06/30 03:52:09;;;;;;;14.75;4.10;;;;;;;;;;5056300;28;19920;-74
2023/06/30 03:54:35;;;;;;;10.13;3.90;;;;;;;;;;5071850;28;20041;-74
2023/06/30 03:57:01;;;;;;;13.57;4.00;;;;;;;;;;5056221;28;20044;-74
2023/06/30 03:59:27;;;;;;;12.65;3.97;;;;;;;;;;5038898;28;20048;-74
2023/06/30 04:01:53;;;;;;;13.18;4.10;;;;;;;;;;5056118;28;20125;-74
2023/06/30 04:04:19;;;;;;;8.85;3.53;;;;;;;;;;5053299;28;20056;-74
2023/06/30 04:06:47;;;;;;;11.40;3.78;;;;;;;;;;5052275;28;20259;-74
2023/06/30 04:09:13;;;;;;;12.55;4.15;;;;;;;;;;5035463;28;20136;-74
2023/06/30 04:11:39;;;;;;;9.45;3.92;;;;;;;;;;5052156;28;20396;-74
2023/06/30 04:14:05;;;;;;;9.35;4.28;;;;;;;;;;5052075;28;20045;-74
2023/06/30 04:16:31;;;;;;;10.82;3.95;;;;;;;;;;5038657;28;20495;-74
2023/06/30 04:18:57;;;;;;;11.02;4.30;;;;;;;;;;5054825;28;20119;-74
2023/06/30 04:21:23;;;;;;;13.60;3.78;;;;;;;;;;5036443;28;20152;-74
2023/06/30 04:23:49;;;;;;;14.05;4.55;;;;;;;;;;5054256;28;20045;-74
2023/06/30 04:26:18;;;;;;;7.80;3.70;;;;;;;;;;5069441;28;20083;-74
2023/06/30 04:28:45;;;;;;;13.93;4.22;;;;;;;;;;5038852;28;20052;-75
2023/06/30 04:31:11;;;;;;;18.13;4.60;;;;;;;;;;5072159;28;20177;-74
2023/06/30 04:33:37;;;;;;;12.35;4.10;;;;;;;;;;5037356;28;20045;-74
2023/06/30 04:36:03;;;;;;;13.23;4.28;;;;;;;;;;5055568;28;20052;-74
2023/06/30 04:38:29;;;;;;;;;;;;;;;;;;5054710;28;20055;-74
2023/06/30 04:40:56;;;;;;;13.88;4.13;;;;;;;;;;5053976;28;19924;-74
2023/06/30 04:43:22;;;;;;;14.23;4.47;;;;;;;;;;5046078;28;20040;-75
2023/06/30 04:45:48;;;;;;;19.88;4.75;;;;;;;;;;5067786;28;20048;-75
2023/06/30 04:48:14;;;;;;;11.23;4.57;;;;;;;;;;5052115;28;20048;-75
2023/06/30 04:50:40;;;;;;;15.98;4.60;;;;;;;;;;5038273;28;20051;-75
2023/06/30 04:53:06;;;;;;;17.88;5.20;;;;;;;;;;5054363;28;20117;-75
2023/06/30 04:55:32;;;;;;;15.10;4.72;;;;;;;;;;5071185;28;20036;-75
2023/06/30 04:57:58;;;;;;;9.93;5.10;;;;;;;;;;5054644;28;20470;-75
2023/06/30 05:00:25;;;;;;;11.88;4.70;;;;;;;;;;5067637;28;20045;-77
2023/06/30 05:02:51;;;;;;;13.07;4.43;;;;;;;;;;5053497;28;20151;-75
2023/06/30 05:05:17;;;;;;;;;;;;;;;;;;5071524;28;20098;-76
2023/06/30 05:07:43;;;;;;;12.43;4.07;;;;;;;;;;5069118;28;20348;-76
2023/06/30 05:10:10;;;;;;;13.10;4.47;;;;;;;;;;5052469;28;20452;-75
2023/06/30 05:12:36;;;;;;;13.93;5.18;;;;;;;;;;5034172;28;20096;-76
2023/06/30 05:15:02;;;;;;;15.93;4.28;;;;;;;;;;5051419;28;20056;-76
2023/06/30 05:17:28;;;;;;;;;;;;;;;;;;5051216;28;20049;-76
2023/06/30 05:19:54;;;;;;;10.65;4.03;;;;;;;;;;5050349;28;19948;-76
2023/06/30 05:22:20;;;;;;;;;;;;;;;;;;5055039;28;20053;-75
2023/06/30 05:24:47;;;;;;;15.00;4.47;;;;;;;;;;5070245;28;19924;-76
2023/06/30 05:27:14;;;;;;;9.63;4.28;;;;;;;;;;5071080;28;20127;-76
2023/06/30 05:29:40;;;;;;;13.20;4.30;;;;;;;;;;5053110;28;20040;-76
2023/06/30 05:32:07;;;;;;;14.75;4.10;;;;;;;;;;5054589;28;20148;-75
2023/06/30 05:34:33;;;;;;;16.48;4.20;;;;;;;;;;5036470;28;20056;-76
2023/06/30 05:36:59;;;;;;;;;;;;;;;;;;5038279;28;20048;-75
2023/06/30 05:39:25;;;;;;;14.90;4.78;;;;;;;;;;5070239;28;19924;-75
2023/06/30 05:41:51;;;;;;;;;;;;;;;;;;5054366;28;20044;-76
2023/06/30 05:44:17;;;;;;;17.15;4.65;;;;;;;;;;5070369;28;19931;-75
2023/06/30 05:46:43;;;;;;;13.10;4.45;;;;;;;;;;5070075;28;20052;-75
2023/06/30 05:49:09;;;;;;;12.65;4.22;;;;;;;;;;5053167;28;20052;-75
2023/06/30 05:51:36;;;;;;;13.98;4.20;;;;;;;;;;5053581;28;20098;-75
2023/06/30 05:54:05;;;;;;;15.48;4.20;;;;;;;;;;5054542;28;20051;-76
2023/06/30 05:56:32;;;;;;;7.63;3.17;;;;;;;;;;5050193;28;20053;-77
2023/06/30 05:58:58;;;;;;;12.30;4.25;;;;;;;;;;5055799;28;20041;-75
2023/06/30 06:01:24;;;;;;;9.75;3.92;;;;;;;;;;5064889;28;20089;-75
2023/06/30 06:03:50;;;;;;;12.00;3.60;;;;;;;;;;5086914;28;20626;-75
2023/06/30 06:06:16;;;;;;;;;;;;;;;;;;5067574;28;20053;-75
2023/06/30 06:08:44;;;;;;;9.80;3.63;;;;;;;;;;5062981;28;19931;-75
2023/06/30 06:11:10;;;;;;;7.88;3.08;;;;;;;;;;5068704;28;20144;-76
2023/06/30 06:13:37;;;;;;;13.23;3.28;;;;;;;;;;5051497;28;20063;-74
2023/06/30 06:16:03;;;;;;;8.85;2.97;;;;;;;;;;5070344;28;20045;-79
2023/06/30 06:18:30;;;;;;;12.10;3.30;;;;;;;;;;5052424;28;20051;-66
2023/06/30 06:20:56;;;;;;;14.07;3.42;;;;;;;;;;5070307;28;20521;-68
2023/06/30 06:23:22;;;;;;;14.27;3.30;;;;;;;;;;5070683;28;20053;-75
2023/06/30 06:25:49;;;;;;;11.38;3.08;;;;;;;;;;5069354;28;20044;-74
2023/06/30 06:28:15;;;;;;;13.07;3.40;;;;;;;;;;5053044;28;20148;-76
2023/06/30 06:30:41;;;;;;;10.48;2.90;;;;;;;;;;5036263;28;20051;-75
2023/06/30 06:33:07;;;;;;;;;;;;;;;;;;5050800;28;20048;-74
2023/06/30 06:35:33;;;;;;;10.40;3.13;;;;;;;;;;5068846;28;20504;-75
2023/06/30 06:38:03;;;;;;;11.52;2.78;;;;;;;;;;5070077;28;20398;-75
2023/06/30 06:40:29;;;;;;;;;;;;;;;;;;5069357;28;20047;-76
2023/06/30 06:42:56;;;;;;;11.73;3.22;;;;;;;;;;5051999;28;19920;-75
2023/06/30 06:45:22;;;;;;;10.50;3.08;;;;;;;;;;5053030;28;20052;-75
2023/06/30 06:48:07;;;;;;;7.88;2.70;;;;;;;;;;5034991;28;20210;-75
2023/06/30 06:50:33;;;;;;;8.57;2.90;;;;;;;;;;5053040;28;20106;-77
2023/06/30 06:52:59;;;;;;;;;;;;;;;;;;5052945;28;20121;-75
2023/06/30 06:55:25;;;;;;;9.68;2.30;;;;;;;;;;5053054;28;20345;-75
2023/06/30 06:57:51;;;;;;;;;;;;;;;;;;5046749;28;20048;-75
2023/06/30 07:00:17;;;;;;;8.52;2.20;;;;;;;;;;5052966;28;19920;-75
2023/06/30 07:02:44;;;;;;;10.52;2.55;;;;;;;;;;5035340;28;20470;-75
2023/06/30 07:05:10;;;;;;;;;;;;;;;;;;5069856;28;20051;-75
2023/06/30 07:07:36;;;;;;;6.88;2.13;;;;;;;;;;5052390;28;19920;-76
2023/06/30 07:10:02;;;;;;;;;;;;;;;;;;5052438;28;20044;-75
2023/06/30 07:12:28;;;;;;;9.57;2.47;;;;;;;;;;5069531;28;19920;-75
2023/06/30 07:14:54;;;;;;;;;;;;;;;;;;5069493;28;20045;-74
2023/06/30 07:17:20;;;;;;;10.93;2.58;;;;;;;;;;5052847;28;19928;-74
2023/06/30 07:19:46;;;;;;;6.20;1.95;;;;;;;;;;5051523;28;20390;-73
2023/06/30 07:22:12;;;;;;;;;;;;;;;;;;5062981;28;20118;-74
2023/06/30 07:24:38;;;;;;;7.68;1.95;;;;;;;;;;5066570;28;19924;-78
2023/06/30 07:27:04;;;;;;;;;;;;;;;;;;5074756;28;20048;-73
2023/06/30 07:29:30;;;;;;;13.10;2.85;;;;;;;;;;5073978;28;20387;-69
2023/06/30 07:31:56;;;;;;;;;;;;;;;;;;5091424;28;20090;-74
2023/06/30 07:34:23;;;;;;;6.53;1.80;;;;;;;;;;5068626;28;19964;-73
2023/06/30 07:36:52;;;;;;;8.40;1.88;;;;;;;;;;5068539;28;20052;-73
2023/06/30 07:39:18;;;;;;;8.98;1.70;;;;;;;;;;5081168;28;20071;-74
2023/06/30 07:41:44;;;;;;;7.93;1.75;;;;;;;;;;5093075;28;20044;-74
2023/06/30 07:44:11;;;;;;;;;;;;;;;;;;5092741;28;20036;-74
2023/06/30 07:46:38;;;;;;;8.35;1.67;;;;;;;;;;5079810;28;19920;-74
2023/06/30 07:49:04;;;;;;;6.68;1.60;;;;;;;;;;5070772;28;20040;-74
2023/06/30 07:51:30;;;;;;;;;;;;;;;;;;5080727;28;20043;-75
2023/06/30 07:53:56;;;;;;;5.47;1.60;;;;;;;;;;5079357;28;19928;-74
2023/06/30 07:56:23;;;;;;;7.60;1.60;;;;;;;;;;5091725;28;20094;-74
2023/06/30 07:58:49;;;;;;;7.53;1.70;;;;;;;;;;5086356;28;20044;-75
2023/06/30 08:01:15;;;;;;;;;;;;;;;;;;5082957;28;20565;-75
2023/06/30 08:03:41;;;;;;;4.47;1.60;;;;;;;;;;5081305;28;19920;-75
2023/06/30 08:06:07;;;;;;;;;;;;;;;;;;5092248;28;20075;-75
2023/06/30 08:08:33;;;;;;;4.60;1.50;;;;;;;;;;5091497;28;20365;-75
2023/06/30 08:10:59;;;;;;;7.53;1.52;;;;;;;;;;5084357;28;20154;-75
2023/06/30 08:13:26;;;;;;;8.52;1.70;;;;;;;;;;5074299;28;20074;-74
2023/06/30 08:15:52;;;;;;;4.25;1.70;;;;;;;;;;5081692;28;20047;-75
2023/06/30 08:18:18;;;;;;;;;;;;;;;;;;5084652;28;20052;-74
2023/06/30 08:20:44;;;;;;;8.02;1.83;;;;;;;;;;5065045;28;19927;-75
2023/06/30 08:23:12;;;;;;;;;;;;;;;;;;5088381;28;20074;-74
2023/06/30 08:25:38;;;;;;;6.88;1.65;;;;;;;;;;5075186;28;19954;-73
2023/06/30 08:28:04;;;;;;;2.90;1.40;;;;;;;;;;5090440;28;20039;-74
2023/06/30 08:30:30;;;;;;;;;;;;;;;;;;5091453;28;20044;-80
2023/06/30 08:32:56;;;;;;;8.05;1.75;;;;;;;;;;5073843;28;19950;-79
2023/06/30 08:35:22;;;;;;;;;;;;;;;;;;5080673;28;20040;-79
2023/06/30 08:37:48;;;;;;;6.40;1.45;;;;;;;;;;5089635;28;19927;-81
2023/06/30 08:40:14;;;;;;;;;;;;;;;;;;5073323;28;20040;-74
2023/06/30 08:42:41;;;;;;;6.28;1.67;;;;;;;;;;5060919;28;19927;-75
2023/06/30 08:45:08;;;;;;;5.43;1.50;;;;;;;;;;5092146;28;20056;-76
2023/06/30 08:47:35;;;;;;;6.88;1.63;;;;;;;;;;5074970;28;20036;-80
2023/06/30 08:50:01;;;;;;;7.13;1.58;;;;;;;;;;5073935;28;20046;-79
2023/06/30 08:52:27;;;;;;;4.82;1.58;;;;;;;;;;5091946;28;20067;-78
2023/06/30 08:54:53;;;;;;;;;;;;;;;;;;5073997;28;20090;-78
2023/06/30 08:57:20;;;;;;;5.28;1.55;;;;;;;;;;5071943;28;19920;-82
2023/06/30 08:59:46;;;;;;;3.38;1.50;;;;;;;;;;5063815;28;20055;-81
2023/06/30 09:02:12;;;;;;;;;;;;;;;;;;5028538;28;20057;-82
2023/06/30 09:04:39;;;;;;;7.13;1.70;;;;;;;;;;5072751;28;19973;-79
2023/06/30 09:07:08;;;;;;;3.17;1.15;;;;;;;;;;5054496;28;20044;-77
2023/06/30 09:09:45;;;;;;;4.47;1.50;;;;;;;;;;5065749;28;20139;-80
2023/06/30 09:12:12;;;;;;;3.15;1.20;;;;;;;;;;5077643;28;20402;-83
2023/06/30 09:14:39;;;;;;;8.07;1.50;;;;;;;;;;5061105;28;20082;-83
2023/06/30 09:17:05;;;;;;;3.85;1.40;;;;;;;;;;5074306;28;20044;-82
2023/06/30 09:19:31;;;;;;;5.97;1.42;;;;;;;;;;5077144;28;20050;-83
2023/06/30 09:21:57;;;;;;;;;;;;;;;;;;5091433;28;20075;-83
2023/06/30 09:24:24;;;;;;;4.10;1.23;;;;;;;;;;5066636;28;19960;-83
2023/06/30 09:26:50;;;;;;;3.90;1.50;;;;;;;;;;5071404;28;20041;-83
2023/06/30 09:29:23;;;;;;;3.67;1.25;;;;;;;;;;5064594;28;20075;-82
2023/06/30 09:31:52;;;;;;;2.35;1.25;;;;;;;;;;5038150;28;20048;-82
2023/06/30 09:34:21;;;;;;;4.07;1.13;;;;;;;;;;5059371;28;20064;-83
2023/06/30 09:36:47;;;;;;;3.47;1.42;;;;;;;;;;5034653;28;20048;-83
2023/06/30 09:39:13;;;;;;;7.95;1.55;;;;;;;;;;5050175;28;20547;-83
2023/06/30 09:41:42;;;;;;;5.68;1.70;;;;;;;;;;5051114;28;20041;-83
2023/06/30 09:44:09;;;;;;;4.47;1.75;;;;;;;;;;5044988;28;20056;-82
2023/06/30 09:46:35;;;;;;;7.55;1.42;;;;;;;;;;5050806;28;20393;-82
2023/06/30 09:49:04;;;;;;;;;;;;;;;;;;5034434;28;20436;-83
2023/06/30 09:51:34;;;;;;;3.60;1.20;;;;;;;;;;5070860;28;19920;-83
2023/06/30 09:54:00;;;;;;;2.45;1.10;;;;;;;;;;5069927;28;20040;-82
2023/06/30 09:56:27;;;;;;;4.50;1.25;;;;;;;;;;5070902;28;20059;-83
2023/06/30 09:58:57;;;;;;;4.28;1.02;;;;;;;;;;5070351;28;20056;-84
2023/06/30 10:01:23;;;;;;;3.55;1.35;;;;;;;;;;5070575;28;20040;-83
2023/06/30 10:03:50;;;;;;;4.57;1.27;;;;;;;;;;5035770;28;20457;-83
2023/06/30 10:06:21;;;;;;;5.57;1.30;;;;;;;;;;5050270;28;20056;-83
2023/06/30 10:08:48;;;;;;;6.72;1.40;;;;;;;;;;5033393;28;20092;-83
2023/06/30 10:11:14;;;;;;;4.20;1.20;;;;;;;;;;5059178;28;20248;-82
2023/06/30 10:13:44;;;;;;;3.53;1.10;;;;;;;;;;5053534;28;20048;-83
2023/06/30 10:16:10;;;;;;;2.92;1.20;;;;;;;;;;5036909;28;20087;-82
2023/06/30 10:18:38;;;;;;;2.67;1.20;;;;;;;;;;5052787;28;20056;-82
2023/06/30 10:21:04;;;;;;;4.60;1.40;;;;;;;;;;5069667;28;20507;-82
2023/06/30 10:23:31;;;;;;;3.72;1.27;;;;;;;;;;5053202;28;20059;-82
2023/06/30 10:25:58;;;;;;;4.20;1.30;;;;;;;;;;5053203;28;20079;-83
2023/06/30 10:28:24;;;;;;;6.78;1.38;;;;;;;;;;5053369;28;20497;-83
2023/06/30 10:30:53;;;;;;;3.50;1.10;;;;;;;;;;5050241;28;20048;-83
2023/06/30 10:33:20;;;;;;;5.13;1.83;;;;;;;;;;5064683;28;20049;-83
2023/06/30 10:35:46;;;;;;;2.97;1.15;;;;;;;;;;5050195;28;20049;-82
2023/06/30 10:38:13;;;;;;;4.72;1.25;;;;;;;;;;5048839;28;20110;-82
2023/06/30 10:40:39;;;;;;;4.05;1.20;;;;;;;;;;5050019;28;20045;-83
2023/06/30 10:43:06;;;;;;;5.00;1.75;;;;;;;;;;5048905;28;20106;-82
2023/06/30 10:45:36;;;;;;;5.13;1.20;;;;;;;;;;5049972;28;20056;-82
2023/06/30 10:48:22;;;;;;;2.88;1.02;;;;;;;;;;5050377;28;20037;-82
2023/06/30 10:50:53;;;;;;;4.43;1.30;;;;;;;;;;5055526;28;20045;-83
2023/06/30 10:53:19;;;;;;;3.47;1.10;;;;;;;;;;5056892;28;20048;-76
2023/06/30 10:55:46;;;;;;;2.25;1.17;;;;;;;;;;5048247;28;20457;-72
2023/06/30 10:58:22;;;;;;;5.03;1.50;;;;;;;;;;5053574;28;20049;-72
2023/06/30 11:01:04;;;;;;;3.22;1.33;;;;;;;;;;5050834;28;20045;-72
2023/06/30 11:03:48;;;;;;;3.45;1.38;;;;;;;;;;5049867;28;20126;-71
2023/06/30 11:06:21;;;;;;;5.88;1.48;;;;;;;;;;5049292;28;20053;-72
2023/06/30 11:09:22;;;;;;;3.88;1.20;;;;;;;;;;5050055;28;20683;-70
2023/06/30 11:11:49;;;;;;;3.95;1.20;;;;;;;;;;5008007;28;20140;-71
2023/06/30 11:14:29;;;;;;;5.25;1.35;;;;;;;;;;5042428;28;20052;-71
2023/06/30 11:17:06;;;;;;;4.10;1.55;;;;;;;;;;5070860;28;20374;-71
2023/06/30 11:19:32;;;;;;;6.53;1.42;;;;;;;;;;5052513;28;20448;-71
2023/06/30 11:22:17;;;;;;;4.55;1.40;;;;;;;;;;5049769;28;20053;-75
2023/06/30 11:24:44;;;;;;;4.55;1.20;;;;;;;;;;5047288;28;20048;-75
2023/06/30 11:27:10;;;;;;;6.40;1.40;;;;;;;;;;5065366;28;20044;-78
2023/06/30 11:29:36;;;;;;;6.93;1.13;;;;;;;;;;5051810;28;20048;-78
2023/06/30 11:32:03;;;;;;;2.78;1.38;;;;;;;;;;5052326;28;20053;-79
2023/06/30 11:34:29;;;;;;;6.80;1.48;;;;;;;;;;5051800;28;20053;-78
2023/06/30 11:36:55;;;;;;;7.70;1.58;;;;;;;;;;5052814;28;20127;-78
2023/06/30 11:39:21;;;;;;;4.88;1.35;;;;;;;;;;5051474;28;20052;-78
2023/06/30 11:41:47;;;;;;;2.28;1.25;;;;;;;;;;5051755;28;20048;-78
2023/06/30 11:44:13;;;;;;;4.47;1.48;;;;;;;;;;5068573;28;20195;-78
2023/06/30 11:46:39;;;;;;;3.80;1.35;;;;;;;;;;5055296;28;20513;-78
2023/06/30 11:49:05;;;;;;;4.57;1.38;;;;;;;;;;5050849;28;20040;-79
2023/06/30 11:51:33;;;;;;;5.57;1.40;;;;;;;;;;5069361;28;20044;-78
2023/06/30 11:53:59;;;;;;;3.53;1.20;;;;;;;;;;5035710;28;20082;-78
2023/06/30 11:56:25;;;;;;;2.63;1.02;;;;;;;;;;5068837;28;20051;-78
2023/06/30 11:58:51;;;;;;;3.15;1.65;;;;;;;;;;5035546;28;20197;-79
2023/06/30 12:01:19;;;;;;;2.20;1.10;;;;;;;;;;5068515;28;20049;-78
2023/06/30 12:03:46;;;;;;;5.68;1.67;;;;;;;;;;5051530;28;20060;-78
2023/06/30 12:06:18;;;;;;;4.78;1.65;;;;;;;;;;5059352;28;20139;-78
2023/06/30 12:08:45;;;;;;;3.17;1.30;;;;;;;;;;5055424;28;20403;-78
2023/06/30 12:11:11;;;;;;;6.32;1.40;;;;;;;;;;5071571;28;20505;-79
2023/06/30 12:13:41;;;;;;;2.28;1.02;;;;;;;;;;5060722;28;20049;-75
2023/06/30 12:16:08;;;;;;;3.08;1.30;;;;;;;;;;5059826;28;20546;-79
2023/06/30 12:18:37;;;;;;;3.00;1.40;;;;;;;;;;5051262;28;20041;-75
2023/06/30 12:21:09;;;;;;;3.80;1.33;;;;;;;;;;5035836;28;20132;-74
2023/06/30 12:23:40;;;;;;;4.30;1.23;;;;;;;;;;5051963;28;20048;-75
2023/06/30 12:26:06;;;;;;;3.95;1.33;;;;;;;;;;5050993;28;20393;-75
2023/06/30 12:28:32;;;;;;;9.15;1.30;;;;;;;;;;5059438;28;20075;-76
2023/06/30 12:30:58;;;;;;;3.60;1.30;;;;;;;;;;5069715;28;20129;-77
2023/06/30 12:33:24;;;;;;;4.38;1.50;;;;;;;;;;5052072;28;20056;-75
2023/06/30 12:35:50;;;;;;;3.67;1.40;;;;;;;;;;5054732;28;20143;-75
2023/06/30 12:38:18;;;;;;;5.10;1.77;;;;;;;;;;5069811;28;20048;-74
2023/06/30 12:40:44;;;;;;;5.72;1.38;;;;;;;;;;5055361;28;20099;-75
2023/06/30 12:43:10;;;;;;;3.83;1.42;;;;;;;;;;5065667;28;20080;-77
2023/06/30 12:45:36;;;;;;;5.22;1.55;;;;;;;;;;5071896;28;20049;-76
2023/06/30 12:48:02;;;;;;;3.10;1.50;;;;;;;;;;5054378;28;20095;-75
2023/06/30 12:50:29;;;;;;;4.93;1.70;;;;;;;;;;5071165;28;20393;-76
2023/06/30 12:52:57;;;;;;;2.15;1.23;;;;;;;;;;5062989;28;20045;-77
2023/06/30 12:55:23;;;;;;;6.18;1.60;;;;;;;;;;5071443;28;20090;-79
2023/06/30 12:57:49;;;;;;;4.00;1.70;;;;;;;;;;5053452;28;20048;-79
2023/06/30 13:00:16;;;;;;;4.32;1.65;;;;;;;;;;5079550;28;20040;-78
2023/06/30 13:02:42;;;;;;;4.45;1.45;;;;;;;;;;5065755;28;20055;-76
2023/06/30 13:05:08;;;;;;;5.22;1.55;;;;;;;;;;5090662;28;20104;-76
2023/06/30 13:07:37;;;;;;;5.75;1.50;;;;;;;;;;5067744;28;20040;-79
2023/06/30 13:10:04;;;;;;;5.22;1.42;;;;;;;;;;5068507;28;20087;-79
2023/06/30 13:12:31;;;;;;;4.97;1.50;;;;;;;;;;5074795;28;20087;-72
2023/06/30 13:14:57;;;;;;;4.85;1.65;;;;;;;;;;5081583;28;20053;-71
2023/06/30 13:17:23;;;;;;;3.88;1.35;;;;;;;;;;5084830;28;20113;-72
2023/06/30 13:19:49;;;;;;;3.97;1.50;;;;;;;;;;5089712;28;20048;-71
2023/06/30 13:22:16;;;;;;;3.67;1.50;;;;;;;;;;5081823;28;20401;-71
2023/06/30 13:24:43;;;;;;;6.55;1.77;;;;;;;;;;5073438;28;20049;-71
2023/06/30 13:27:10;;;;;;;5.22;1.70;;;;;;;;;;5091960;28;20048;-73
2023/06/30 13:29:36;;;;;;;7.90;1.70;;;;;;;;;;5091212;28;20060;-72
2023/06/30 13:32:03;;;;;;;6.22;1.63;;;;;;;;;;5092254;28;20480;-73
2023/06/30 13:34:29;;;;;;;5.13;1.55;;;;;;;;;;5058901;28;20045;-71
2023/06/30 13:36:55;;;;;;;5.50;1.48;;;;;;;;;;5063998;28;20173;-78
2023/06/30 13:39:21;;;;;;;5.70;1.40;;;;;;;;;;5062207;28;20051;-73
2023/06/30 13:41:47;;;;;;;3.22;1.55;;;;;;;;;;5090547;28;20548;-72
2023/06/30 13:44:13;;;;;;;6.35;1.80;;;;;;;;;;5091589;28;20048;-73
2023/06/30 13:46:39;;;;;;;5.78;1.40;;;;;;;;;;5089968;28;20620;-72
2023/06/30 13:49:05;;;;;;;3.75;1.40;;;;;;;;;;5089797;28;20440;-72
2023/06/30 13:51:31;;;;;;;4.45;1.40;;;;;;;;;;5090849;28;20036;-72
2023/06/30 13:53:57;;;;;;;3.42;1.40;;;;;;;;;;5090270;28;20051;-72
2023/06/30 13:56:24;;;;;;;4.03;1.30;;;;;;;;;;5089741;28;20056;-72
2023/06/30 13:58:50;;;;;;;5.78;1.50;;;;;;;;;;5083940;28;20044;-72
2023/06/30 14:01:16;;;;;;;7.82;1.38;;;;;;;;;;5090901;28;20690;-75
2023/06/30 14:03:44;;;;;;;3.30;1.25;;;;;;;;;;5088965;28;20297;-75
2023/06/30 14:06:11;;;;;;;5.93;1.58;;;;;;;;;;5088345;28;20048;-72
2023/06/30 14:08:37;;;;;;;4.65;1.20;;;;;;;;;;5079806;28;20047;-74
2023/06/30 14:11:03;;;;;;;5.88;1.60;;;;;;;;;;5088749;28;20074;-74
2023/06/30 14:13:29;;;;;;;2.28;1.27;;;;;;;;;;5089911;28;20052;-72
2023/06/30 14:15:55;;;;;;;3.75;1.52;;;;;;;;;;5085759;28;20044;-72
2023/06/30 14:18:21;;;;;;;4.75;1.50;;;;;;;;;;5080876;28;20491;-72
2023/06/30 14:20:47;;;;;;;2.90;1.38;;;;;;;;;;5089167;28;20055;-72
2023/06/30 14:23:14;;;;;;;5.03;1.67;;;;;;;;;;5080808;28;20137;-72
2023/06/30 14:25:40;;;;;;;5.50;1.70;;;;;;;;;;5076361;28;20043;-70
2023/06/30 14:28:06;;;;;;;4.68;1.50;;;;;;;;;;5085657;28;20048;-80
2023/06/30 14:30:34;;;;;;;4.65;2.00;;;;;;;;;;5069717;28;20043;-76
2023/06/30 14:33:03;;;;;;;3.33;1.50;;;;;;;;;;5072391;28;20063;-75
2023/06/30 14:35:30;;;;;;;3.22;1.45;;;;;;;;;;5089526;28;20048;-76
2023/06/30 14:37:56;;;;;;;4.00;1.55;;;;;;;;;;5071471;28;20121;-75
2023/06/30 14:40:24;;;;;;;4.85;1.90;;;;;;;;;;5072850;28;20044;-76
2023/06/30 14:42:53;;;;;;;6.38;1.80;;;;;;;;;;5057349;28;20105;-74
2023/06/30 14:45:19;;;;;;;5.53;1.60;;;;;;;;;;5036247;28;20473;-74
2023/06/30 14:47:45;;;;;;;4.65;1.50;;;;;;;;;;5035288;28;20044;-76
2023/06/30 14:50:11;;;;;;;4.55;1.63;;;;;;;;;;5069868;28;20067;-74
2023/06/30 14:52:37;;;;;;;4.07;1.52;;;;;;;;;;5035949;28;20149;-75